Time;durP1;ratioP1;P1;durP2;ratioP2;P2;SDS_P1;SDS_P2;PMS_P1;PMS_P2;Temp;Humidity;BMP_temperature;BMP_pressure;BME280_temperature;BME280_humidity;BME280_pressure;Samples;Min_cycle;Max_cycle;Signal;HPM_P1;HPM_P2
2022/01/09 00:00:25;;;;;;;5.82;1.95;;;;;;;2.58;86.53;99158.69;5003664;28;20055;-85
2022/01/09 00:02:52;;;;;;;9.30;2.85;;;;;;;2.58;86.40;99156.75;5022678;28;20087;-86
2022/01/09 00:05:20;;;;;;;15.88;2.40;;;;;;;2.55;86.53;99151.94;5023680;28;20049;-88
2022/01/09 00:07:47;;;;;;;11.48;2.75;;;;;;;2.53;86.63;99156.13;5001879;28;20061;-88
2022/01/09 00:10:14;;;;;;;5.93;2.25;;;;;;;2.52;86.78;99149.88;5004067;28;20041;-87
2022/01/09 00:12:42;;;;;;;15.10;4.20;;;;;;;2.53;86.72;99169.81;5023266;28;20040;-86
2022/01/09 00:15:09;;;;;;;5.40;2.20;;;;;;;2.51;86.61;99174.78;5025870;28;20124;-87
2022/01/09 00:17:36;;;;;;;7.32;2.20;;;;;;;2.49;86.91;99177.84;5025940;28;20041;-85
2022/01/09 00:20:04;;;;;;;10.05;2.47;;;;;;;2.46;87.03;99170.34;5028052;28;20030;-86
2022/01/09 00:22:53;;;;;;;10.32;2.67;;;;;;;2.45;86.63;99174.19;5010105;28;20038;-88
2022/01/09 00:25:24;;;;;;;9.95;3.72;;;;;;;2.44;86.79;99178.03;5028610;28;20045;-87
2022/01/09 00:27:52;;;;;;;23.75;4.05;;;;;;;2.43;86.84;99190.91;5025990;28;20048;-87
2022/01/09 00:30:22;;;;;;;5.97;1.77;;;;;;;2.43;86.88;99185.44;5028363;28;20045;-87
2022/01/09 00:32:50;;;;;;;4.18;1.88;;;;;;;2.43;86.73;99188.19;5027467;28;20045;-86
2022/01/09 00:35:18;;;;;;;11.13;2.47;;;;;;;2.44;87.20;99191.69;5026104;28;20057;-86
2022/01/09 00:37:44;;;;;;;10.23;3.83;;;;;;;2.43;86.79;99192.84;5027609;28;20073;-86
2022/01/09 00:40:13;;;;;;;11.93;2.97;;;;;;;2.41;87.03;99189.63;5020926;28;20045;-85
2022/01/09 00:42:41;;;;;;;11.55;2.15;;;;;;;2.42;86.72;99193.97;5009000;28;20065;-87
2022/01/09 00:45:09;;;;;;;5.40;2.05;;;;;;;2.41;86.95;99182.22;5028101;28;20041;-84
2022/01/09 00:47:36;;;;;;;10.85;2.28;;;;;;;2.41;86.95;99186.88;5027723;28;20138;-86
2022/01/09 00:50:04;;;;;;;7.25;3.00;;;;;;;2.40;86.84;99194.31;5028099;28;20061;-86
2022/01/09 00:52:31;;;;;;;7.85;2.38;;;;;;;2.38;86.80;99210.19;5023798;28;20128;-85
2022/01/09 00:54:57;;;;;;;8.63;2.17;;;;;;;2.37;86.87;99202.34;5025006;28;20121;-85
2022/01/09 00:57:24;;;;;;;12.32;2.33;;;;;;;2.33;86.82;99191.25;5024476;28;20041;-86
2022/01/09 00:59:51;;;;;;;8.40;5.03;;;;;;;2.31;86.93;99204.44;5007230;28;20077;-86
2022/01/09 01:02:18;;;;;;;10.27;3.53;;;;;;;2.32;87.30;99210.72;5025310;28;20037;-85
2022/01/09 01:04:46;;;;;;;6.75;2.97;;;;;;;2.29;87.09;99200.44;5025957;28;20053;-85
2022/01/09 01:07:13;;;;;;;14.80;3.75;;;;;;;2.29;87.15;99192.25;5008000;28;20084;-86
2022/01/09 01:09:40;;;;;;;9.77;1.98;;;;;;;2.29;86.93;99205.91;5024732;28;20103;-84
2022/01/09 01:12:07;;;;;;;8.98;2.40;;;;;;;2.27;87.12;99202.72;5024827;28;20169;-87
2022/01/09 01:14:33;;;;;;;12.52;2.42;;;;;;;2.29;86.88;99208.63;5024789;28;20041;-86
2022/01/09 01:17:00;;;;;;;9.68;2.17;;;;;;;2.29;87.01;99208.63;5026223;28;20041;-85
2022/01/09 01:19:27;;;;;;;12.15;3.53;;;;;;;2.29;87.20;99190.34;5025706;28;20058;-86
2022/01/09 01:21:55;;;;;;;13.77;3.38;;;;;;;2.30;87.22;99191.91;5024586;28;20608;-85
2022/01/09 01:24:22;;;;;;;8.40;2.42;;;;;;;2.29;87.38;99205.91;5022911;28;20045;-85
2022/01/09 01:26:49;;;;;;;14.88;3.15;;;;;;;2.28;87.16;99191.44;5024353;28;20063;-82
2022/01/09 01:29:17;;;;;;;8.93;2.25;;;;;;;2.29;87.17;99200.44;5023123;28;20039;-84
2022/01/09 01:31:44;;;;;;;10.15;3.28;;;;;;;2.27;87.40;99198.06;5026316;28;20033;-82
2022/01/09 01:34:14;;;;;;;6.88;2.05;;;;;;;2.28;86.93;99196.91;5023947;28;20058;-82
2022/01/09 01:36:40;;;;;;;8.82;2.50;;;;;;;2.28;87.16;99204.28;5023308;28;20042;-84
2022/01/09 01:39:07;;;;;;;11.30;2.35;;;;;;;2.26;87.29;99209.28;5022924;28;20048;-85
2022/01/09 01:41:34;;;;;;;9.52;2.15;;;;;;;2.25;87.55;99205.75;5025164;28;20090;-84
2022/01/09 01:44:09;;;;;;;9.02;2.05;;;;;;;2.21;86.99;99202.09;5026302;28;20128;-84
2022/01/09 01:46:36;;;;;;;9.05;2.03;;;;;;;2.23;87.28;99210.75;5024771;28;20048;-85
2022/01/09 01:49:05;;;;;;;14.60;2.17;;;;;;;2.21;87.30;99209.47;5023799;28;20037;-85
2022/01/09 01:51:34;;;;;;;10.18;1.88;;;;;;;2.22;87.40;99211.09;5024228;28;20033;-84
2022/01/09 01:54:01;;;;;;;10.23;2.13;;;;;;;2.19;87.08;99209.81;5017698;28;20128;-85
2022/01/09 01:56:28;;;;;;;9.93;1.92;;;;;;;2.18;87.58;99210.94;5034939;28;20056;-85
2022/01/09 01:58:56;;;;;;;12.32;2.03;;;;;;;2.16;87.81;99213.19;5025146;28;20048;-85
2022/01/09 02:01:23;;;;;;;4.47;1.80;;;;;;;2.17;87.46;99208.53;5024632;28;20108;-84
2022/01/09 02:03:49;;;;;;;10.35;2.30;;;;;;;2.17;87.64;99219.47;5024603;28;20042;-85
2022/01/09 02:06:17;;;;;;;10.95;1.83;;;;;;;2.17;87.61;99225.69;5023335;28;20033;-84
2022/01/09 02:08:44;;;;;;;13.57;3.08;;;;;;;2.18;87.98;99221.84;5007619;28;20141;-84
2022/01/09 02:11:12;;;;;;;5.80;1.80;;;;;;;2.19;88.23;99218.00;5023723;28;20131;-85
2022/01/09 02:13:45;;;;;;;7.32;2.22;;;;;;;2.21;88.16;99226.66;5023611;28;20093;-84
2022/01/09 02:16:18;;;;;;;9.95;1.90;;;;;;;2.23;88.13;99235.31;5024493;28;20033;-84
2022/01/09 02:18:46;;;;;;;13.02;2.45;;;;;;;2.24;87.96;99242.38;5024600;28;20040;-82
2022/01/09 02:21:14;;;;;;;11.32;2.03;;;;;;;2.27;88.01;99230.00;5025846;28;20033;-85
2022/01/09 02:23:45;;;;;;;10.38;2.30;;;;;;;2.29;88.10;99230.47;5024950;28;20037;-85
2022/01/09 02:26:20;;;;;;;15.40;3.40;;;;;;;2.29;88.11;99233.22;5024125;28;20128;-84
2022/01/09 02:28:48;;;;;;;11.57;2.35;;;;;;;2.31;88.21;99233.69;5024404;28;20056;-84
2022/01/09 02:31:15;;;;;;;9.25;1.90;;;;;;;2.31;88.43;99228.22;5033696;28;20045;-85
2022/01/09 02:33:42;;;;;;;8.88;2.63;;;;;;;2.31;88.21;99230.94;5024770;28;20055;-85
2022/01/09 02:36:09;;;;;;;7.03;2.33;;;;;;;2.31;88.28;99220.03;5024874;28;20037;-85
2022/01/09 02:38:37;;;;;;;7.65;1.83;;;;;;;2.32;88.25;99210.72;5024677;28;20071;-84
2022/01/09 02:41:04;;;;;;;12.07;2.63;;;;;;;2.32;88.88;99200.59;5024474;28;20520;-84
2022/01/09 02:43:30;;;;;;;6.32;1.77;;;;;;;2.33;88.41;99195.94;5024813;28;20051;-85
2022/01/09 02:48:34;;;;;;;12.15;1.80;;;;;;;2.36;88.44;99212.44;5025545;28;20053;-84
2022/01/09 02:51:08;;;;;;;8.43;2.03;;;;;;;2.35;88.68;99207.34;5025246;28;20061;-85
2022/01/09 02:53:37;;;;;;;12.88;2.05;;;;;;;2.36;88.61;99217.09;5026110;28;20042;-85
2022/01/09 02:56:06;;;;;;;8.40;1.40;;;;;;;2.35;88.23;99210.06;5025768;28;20076;-84
2022/01/09 02:58:34;;;;;;;8.02;1.92;;;;;;;2.36;88.66;99206.19;5007277;28;20048;-84
2022/01/09 03:01:01;;;;;;;8.80;2.25;;;;;;;2.35;88.78;99199.13;5023576;28;20049;-84
2022/01/09 03:03:28;;;;;;;13.65;2.97;;;;;;;2.35;88.59;99207.34;5035622;28;20056;-84
2022/01/09 03:05:55;;;;;;;18.85;2.85;;;;;;;2.34;88.42;99213.91;5026198;28;20034;-84
2022/01/09 03:08:22;;;;;;;9.50;2.10;;;;;;;2.33;88.73;99213.09;5023986;28;20041;-83
2022/01/09 03:10:49;;;;;;;5.93;1.83;;;;;;;2.33;89.18;99198.69;5007576;28;20091;-85
2022/01/09 03:13:16;;;;;;;6.90;1.83;;;;;;;2.33;88.68;99195.94;5025266;28;20029;-85
2022/01/09 03:15:43;;;;;;;10.27;2.15;;;;;;;2.33;88.88;99201.41;5022405;28;20486;-84
2022/01/09 03:18:10;;;;;;;10.57;2.95;;;;;;;2.33;88.82;99206.88;5024368;28;20037;-84
2022/01/09 03:20:37;;;;;;;5.10;1.38;;;;;;;2.33;89.03;99202.19;5022891;28;20397;-85
2022/01/09 03:23:08;;;;;;;10.75;1.73;;;;;;;2.34;88.72;99217.44;5024876;28;20045;-84
2022/01/09 03:25:35;;;;;;;6.07;1.80;;;;;;;2.34;88.68;99200.25;5024905;28;20041;-83
2022/01/09 03:28:04;;;;;;;8.82;2.25;;;;;;;2.33;88.91;99207.66;5025259;28;20044;-83
2022/01/09 03:30:30;;;;;;;7.22;1.65;;;;;;;2.35;89.29;99204.59;5023693;28;20049;-83
2022/01/09 03:32:57;;;;;;;11.00;2.40;;;;;;;2.35;88.92;99204.59;5023512;28;20052;-84
2022/01/09 03:35:26;;;;;;;9.55;2.00;;;;;;;2.38;88.88;99198.50;5024758;28;20044;-84
2022/01/09 03:37:53;;;;;;;7.50;2.20;;;;;;;2.37;88.87;99197.69;5023807;28;20045;-84
2022/01/09 03:40:25;;;;;;;14.48;2.15;;;;;;;2.36;89.13;99196.06;5024563;28;20076;-84
2022/01/09 03:42:53;;;;;;;9.10;1.58;;;;;;;2.38;89.09;99210.19;5025675;28;20067;-83
2022/01/09 03:45:21;;;;;;;10.35;2.05;;;;;;;2.39;88.98;99219.19;5023299;28;20047;-84
2022/01/09 03:47:48;;;;;;;5.88;1.63;;;;;;;2.42;88.89;99215.81;5025369;28;20058;-84
2022/01/09 03:50:17;;;;;;;9.25;2.15;;;;;;;2.42;89.07;99215.81;5006592;28;20482;-83
2022/01/09 03:52:47;;;;;;;7.78;1.50;;;;;;;2.42;89.15;99215.81;5027547;28;20045;-84
2022/01/09 03:55:16;;;;;;;6.97;1.77;;;;;;;2.43;88.56;99211.97;5027007;28;20091;-85
2022/01/09 03:57:43;;;;;;;9.63;1.60;;;;;;;2.43;88.96;99217.41;5027583;28;20136;-82
2022/01/09 04:00:15;;;;;;;13.05;1.50;;;;;;;2.44;88.76;99202.63;5024991;28;20037;-83
2022/01/09 04:02:43;;;;;;;7.30;2.03;;;;;;;2.44;88.84;99191.69;5027096;28;20480;-83
2022/01/09 04:05:10;;;;;;;9.20;2.22;;;;;;;2.44;88.63;99186.22;5027737;28;20068;-84
2022/01/09 04:07:37;;;;;;;6.90;1.35;;;;;;;2.43;88.47;99196.38;5027129;28;20043;-83
2022/01/09 04:10:04;;;;;;;5.55;1.50;;;;;;;2.44;88.96;99214.34;5026390;28;20045;-82
2022/01/09 04:12:36;;;;;;;7.80;1.38;;;;;;;2.45;88.94;99220.63;5026698;28;20043;-84
2022/01/09 04:15:07;;;;;;;7.03;1.52;;;;;;;2.44;88.78;99225.28;5029135;28;20029;-83
2022/01/09 04:20:01;;;;;;;12.00;2.55;;;;;;;2.46;88.74;99219.50;5027493;28;20116;-84
2022/01/09 04:22:28;;;;;;;10.93;2.42;;;;;;;2.45;89.17;99226.88;5043352;28;20051;-84
2022/01/09 04:24:55;;;;;;;6.78;1.77;;;;;;;2.47;88.78;99237.47;5027008;28;20041;-83
2022/01/09 04:27:21;;;;;;;4.22;1.30;;;;;;;2.46;89.04;99241.34;5026602;28;20034;-84
2022/01/09 04:29:48;;;;;;;10.15;1.30;;;;;;;2.47;89.08;99240.19;5010196;28;20045;-84
2022/01/09 04:32:15;;;;;;;11.93;1.70;;;;;;;2.46;89.06;99227.69;5026716;28;20060;-84
2022/01/09 04:34:42;;;;;;;13.15;2.40;;;;;;;2.46;89.11;99227.69;5010432;28;20095;-84
2022/01/09 04:37:09;;;;;;;11.35;2.55;;;;;;;2.46;89.06;99222.22;5026977;28;20059;-84
2022/01/09 04:39:37;;;;;;;8.32;2.75;;;;;;;2.44;89.60;99229.94;5027084;28;20488;-81
2022/01/09 04:42:04;;;;;;;12.30;1.75;;;;;;;2.46;89.24;99241.34;5026883;28;20037;-83
2022/01/09 04:44:31;;;;;;;9.45;1.80;;;;;;;2.45;89.79;99215.16;5026228;28;20099;-84
2022/01/09 04:47:03;;;;;;;11.63;2.90;;;;;;;2.45;89.43;99226.06;5020735;28;20075;-85
2022/01/09 04:49:36;;;;;;;;;;;;;;;2.41;90.16;99209.53;5020694;28;20033;-85
2022/01/09 04:52:06;;;;;;;6.07;1.80;;;;;;;2.43;89.44;99201.84;5027994;28;19921;-84
2022/01/09 04:54:33;;;;;;;13.18;2.10;;;;;;;2.44;89.31;99208.88;5026405;28;20033;-83
2022/01/09 04:57:02;;;;;;;10.10;2.40;;;;;;;2.47;89.61;99207.44;5008982;28;20512;-84
2022/01/09 04:59:29;;;;;;;7.20;2.20;;;;;;;2.48;89.67;99203.56;5026263;28;20049;-84
2022/01/09 05:01:56;;;;;;;8.57;2.10;;;;;;;2.50;89.40;99214.97;5039302;28;20975;-83
2022/01/09 05:04:23;;;;;;;9.27;2.17;;;;;;;2.51;89.45;99202.91;5026694;28;20026;-83
2022/01/09 05:06:50;;;;;;;12.85;1.95;;;;;;;2.54;89.47;99206.91;5025110;28;20041;-83
2022/01/09 05:09:17;;;;;;;10.93;3.13;;;;;;;2.56;89.51;99216.38;5025558;28;20045;-84
2022/01/09 05:11:44;;;;;;;17.90;2.92;;;;;;;2.60;89.75;99222.78;5027794;28;20042;-84
2022/01/09 05:14:10;;;;;;;20.25;3.03;;;;;;;2.63;89.65;99222.13;5025966;28;20489;-84
2022/01/09 05:16:42;;;;;;;12.45;2.78;;;;;;;2.66;89.73;99216.00;5026041;28;20049;-81
2022/01/09 05:19:17;;;;;;;15.82;2.30;;;;;;;2.70;89.79;99206.00;5027081;28;20777;-82
2022/01/09 05:21:45;;;;;;;14.98;3.15;;;;;;;2.76;89.71;99201.97;5027678;28;20053;-83
2022/01/09 05:24:12;;;;;;;13.32;2.03;;;;;;;2.79;89.81;99201.28;5025185;28;20045;-84
2022/01/09 05:26:38;;;;;;;10.40;2.00;;;;;;;2.82;89.78;99219.78;5025915;28;20049;-84
2022/01/09 05:29:05;;;;;;;8.15;2.65;;;;;;;2.86;89.70;99230.84;5024398;28;20064;-85
2022/01/09 05:31:32;;;;;;;14.57;3.78;;;;;;;2.87;89.54;99230.50;5024965;28;20041;-84
2022/01/09 05:33:59;;;;;;;13.98;2.83;;;;;;;2.90;89.60;99237.25;5009991;28;20053;-84
2022/01/09 05:36:26;;;;;;;21.65;3.00;;;;;;;2.91;89.84;99245.09;5026324;28;20091;-84
2022/01/09 05:38:52;;;;;;;16.00;3.05;;;;;;;2.93;89.93;99237.41;5008992;28;20057;-83
2022/01/09 05:41:19;;;;;;;21.85;3.30;;;;;;;2.94;89.92;99247.16;5026663;28;20033;-85
2022/01/09 05:43:46;;;;;;;14.75;2.22;;;;;;;2.96;89.61;99236.72;5025598;28;20119;-85
2022/01/09 05:46:13;;;;;;;8.95;3.10;;;;;;;2.97;89.48;99235.59;5024149;28;20041;-84
2022/01/09 05:48:40;;;;;;;9.32;2.28;;;;;;;2.98;89.58;99239.94;5025349;28;20085;-82
2022/01/09 05:51:07;;;;;;;16.67;2.17;;;;;;;3.00;89.48;99234.13;5024495;28;20125;-83
2022/01/09 05:53:34;;;;;;;10.32;2.30;;;;;;;2.98;89.49;99231.72;5025526;28;20046;-84
2022/01/09 05:56:00;;;;;;;9.75;2.03;;;;;;;3.00;89.40;99228.66;5035053;28;20045;-84
2022/01/09 05:58:27;;;;;;;11.45;2.88;;;;;;;3.01;89.48;99233.81;5026515;28;20532;-83
2022/01/09 06:00:54;;;;;;;11.30;3.63;;;;;;;3.02;89.51;99240.03;5023975;28;20096;-84
2022/01/09 06:03:21;;;;;;;17.40;3.58;;;;;;;3.04;89.56;99246.78;5007832;28;20044;-83
2022/01/09 06:05:48;;;;;;;13.10;3.20;;;;;;;3.04;89.22;99238.56;5023316;28;20042;-83
2022/01/09 06:08:15;;;;;;;24.98;3.10;;;;;;;3.04;89.11;99251.47;5008533;28;20041;-84
2022/01/09 06:10:42;;;;;;;9.93;3.10;;;;;;;3.03;89.48;99241.66;5024996;28;20447;-83
2022/01/09 06:13:08;;;;;;;10.10;2.58;;;;;;;3.02;89.09;99232.66;5007984;28;20037;-84
2022/01/09 06:15:35;;;;;;;16.17;2.13;;;;;;;3.05;89.20;99239.38;5023695;28;20473;-85
2022/01/09 06:18:02;;;;;;;11.77;2.13;;;;;;;3.04;89.22;99224.13;5025985;28;20142;-83
2022/01/09 06:20:29;;;;;;;13.60;2.20;;;;;;;3.04;88.93;99226.88;5024652;28;20465;-84
2022/01/09 06:22:56;;;;;;;17.10;3.08;;;;;;;3.07;89.52;99237.91;5025767;28;20400;-84
2022/01/09 06:25:23;;;;;;;11.32;2.28;;;;;;;3.10;89.41;99241.16;5007864;28;20064;-83
2022/01/09 06:27:49;;;;;;;16.73;2.92;;;;;;;3.11;89.12;99237.25;5026334;28;20140;-84
2022/01/09 06:30:17;;;;;;;8.50;2.20;;;;;;;3.11;89.55;99248.19;5023175;28;20037;-84
2022/01/09 06:32:43;;;;;;;11.30;2.95;;;;;;;3.12;89.45;99233.41;5025578;28;20045;-82
2022/01/09 06:35:11;;;;;;;9.93;2.13;;;;;;;3.15;89.40;99243.69;5024493;28;20124;-83
2022/01/09 06:37:38;;;;;;;11.40;2.22;;;;;;;3.16;89.12;99239.78;5008060;28;20056;-84
2022/01/09 06:40:08;;;;;;;13.52;2.53;;;;;;;3.16;89.57;99240.59;5025152;28;20139;-85
2022/01/09 06:42:38;;;;;;;11.13;4.10;;;;;;;3.16;89.30;99243.34;5023928;28;20041;-85
2022/01/09 06:45:06;;;;;;;12.32;2.88;;;;;;;3.18;89.75;99248.50;5025513;28;20038;-85
2022/01/09 06:47:33;;;;;;;14.32;2.60;;;;;;;3.18;89.65;99249.25;5017346;28;20049;-82
2022/01/09 06:49:59;;;;;;;15.73;2.70;;;;;;;3.19;89.17;99247.34;5023383;28;20040;-83
2022/01/09 06:52:26;;;;;;;14.23;2.83;;;;;;;3.18;89.58;99257.47;5024615;28;20095;-84
2022/01/09 06:54:53;;;;;;;11.05;2.30;;;;;;;3.17;89.38;99253.16;5023078;28;20452;-83
2022/01/09 06:57:20;;;;;;;10.40;2.50;;;;;;;3.17;89.48;99246.88;5023526;28;20041;-84
2022/01/09 06:59:47;;;;;;;12.73;2.63;;;;;;;3.16;89.56;99245.25;5023043;28;20045;-84
2022/01/09 07:02:13;;;;;;;14.15;3.75;;;;;;;3.18;89.57;99253.97;5023727;28;20037;-84
2022/01/09 07:04:40;;;;;;;12.20;2.95;;;;;;;3.17;89.76;99253.16;5005991;28;20064;-84
2022/01/09 07:07:07;;;;;;;13.50;3.03;;;;;;;3.18;89.84;99252.00;5023089;28;20075;-83
2022/01/09 07:09:34;;;;;;;10.88;2.58;;;;;;;3.20;89.93;99251.69;5023599;28;20049;-84
2022/01/09 07:12:01;;;;;;;15.95;2.72;;;;;;;3.21;89.97;99253.25;5024819;28;20474;-83
2022/01/09 07:14:27;;;;;;;12.27;2.90;;;;;;;3.22;89.98;99266.63;5023856;28;20038;-84
2022/01/09 07:16:54;;;;;;;19.55;2.83;;;;;;;3.23;89.69;99251.78;5023331;28;20033;-84
2022/01/09 07:19:21;;;;;;;12.45;3.47;;;;;;;3.25;89.71;99248.75;5025212;28;20034;-84
2022/01/09 07:21:48;;;;;;;14.75;3.67;;;;;;;3.27;89.70;99257.41;5024275;28;20053;-83
2022/01/09 07:24:14;;;;;;;18.67;2.22;;;;;;;3.26;89.61;99269.47;5021144;28;20044;-83
2022/01/09 07:26:41;;;;;;;12.98;2.85;;;;;;;3.26;89.94;99277.69;5022615;28;20422;-83
2022/01/09 07:29:08;;;;;;;13.27;3.25;;;;;;;3.26;89.80;99259.34;5021857;28;20071;-83
2022/01/09 07:31:35;;;;;;;19.83;3.95;;;;;;;3.27;89.69;99257.41;5022617;28;20045;-84
2022/01/09 07:34:02;;;;;;;13.38;2.00;;;;;;;3.26;89.69;99266.75;5023213;28;20602;-84
2022/01/09 07:36:28;;;;;;;11.85;2.33;;;;;;;3.24;89.85;99264.34;5023389;28;20053;-84
2022/01/09 07:38:55;;;;;;;16.40;4.40;;;;;;;3.25;89.49;99273.38;5024206;28;20124;-84
2022/01/09 07:41:24;;;;;;;8.05;2.83;;;;;;;3.24;90.00;99264.34;5024269;28;20504;-84
2022/01/09 07:43:51;;;;;;;17.92;2.88;;;;;;;3.25;89.70;99270.63;5023804;28;20037;-82
2022/01/09 07:46:18;;;;;;;11.48;4.95;;;;;;;3.25;89.62;99270.63;5023547;28;20385;-85
2022/01/09 07:48:45;;;;;;;16.10;2.00;;;;;;;3.26;89.97;99266.75;5023005;28;20049;-82
2022/01/09 07:51:12;;;;;;;24.27;2.72;;;;;;;3.26;89.90;99273.00;5024523;28;20134;-84
2022/01/09 07:53:39;;;;;;;13.85;2.20;;;;;;;3.26;89.72;99277.69;5023395;28;20047;-82
2022/01/09 07:56:06;;;;;;;7.57;1.73;;;;;;;3.24;89.23;99290.88;5023455;28;20029;-83
2022/01/09 07:58:33;;;;;;;12.70;2.30;;;;;;;3.24;89.94;99296.38;5022699;28;20076;-84
2022/01/09 08:00:59;;;;;;;20.88;3.40;;;;;;;3.24;89.39;99296.38;5025968;28;20272;-82
2022/01/09 08:03:26;;;;;;;12.20;2.90;;;;;;;3.23;89.55;99278.38;5022237;28;20041;-84
2022/01/09 08:05:53;;;;;;;12.48;2.60;;;;;;;3.21;89.59;99280.63;5020496;28;20401;-84
2022/01/09 08:08:20;;;;;;;14.35;2.50;;;;;;;3.18;89.64;99284.81;5025167;28;20052;-82
2022/01/09 08:10:47;;;;;;;14.45;2.47;;;;;;;3.18;89.75;99281.31;5023264;28;20142;-83
2022/01/09 08:13:14;;;;;;;11.02;3.10;;;;;;;3.17;89.63;99280.50;5023084;28;20131;-84
2022/01/09 08:15:41;;;;;;;16.73;3.42;;;;;;;3.18;89.63;99292.25;5016525;28;20651;-85
2022/01/09 08:18:08;;;;;;;11.68;2.20;;;;;;;3.18;89.76;99300.44;5016318;28;20053;-84
2022/01/09 08:20:35;;;;;;;7.82;2.33;;;;;;;3.18;89.70;99303.19;5023872;28;20444;-84
2022/01/09 08:23:02;;;;;;;13.55;2.40;;;;;;;3.17;89.87;99305.09;5022220;28;20041;-84
2022/01/09 08:25:34;;;;;;;9.60;2.17;;;;;;;3.17;89.57;99301.56;5023652;28;20068;-84
2022/01/09 08:28:01;;;;;;;11.27;1.58;;;;;;;3.18;89.61;99301.22;5006202;28;20041;-84
2022/01/09 08:30:27;;;;;;;17.35;3.22;;;;;;;3.18;89.57;99308.66;5022919;28;20033;-85
2022/01/09 08:32:54;;;;;;;13.20;2.53;;;;;;;3.17;89.92;99304.31;5022776;28;20132;-83
2022/01/09 08:35:21;;;;;;;17.23;3.60;;;;;;;3.17;89.94;99315.25;5023936;28;20033;-83
2022/01/09 08:37:48;;;;;;;9.88;2.90;;;;;;;3.15;89.63;99320.25;5027095;28;20048;-83
2022/01/09 08:40:19;;;;;;;13.48;2.90;;;;;;;3.15;89.72;99325.72;5004466;28;20140;-84
2022/01/09 08:42:47;;;;;;;13.65;3.25;;;;;;;3.15;89.56;99331.19;5027604;28;20101;-83
2022/01/09 08:45:15;;;;;;;12.73;2.33;;;;;;;3.15;89.82;99336.66;5025826;28;20123;-83
2022/01/09 08:47:43;;;;;;;14.02;2.20;;;;;;;3.14;89.81;99344.03;5026871;28;20076;-84
2022/01/09 08:50:12;;;;;;;8.40;2.70;;;;;;;3.12;89.68;99348.25;5026223;28;20034;-83
2022/01/09 08:52:40;;;;;;;11.25;2.03;;;;;;;3.12;89.77;99349.06;5026411;28;20489;-83
2022/01/09 08:55:07;;;;;;;14.95;2.40;;;;;;;3.13;89.67;99358.84;5026677;28;20037;-82
2022/01/09 08:57:34;;;;;;;13.52;1.95;;;;;;;3.15;89.90;99370.25;5024308;28;20056;-83
2022/01/09 09:00:03;;;;;;;16.13;2.47;;;;;;;3.16;90.07;99371.03;5026433;28;20042;-83
2022/01/09 09:02:30;;;;;;;14.70;2.33;;;;;;;3.15;89.82;99367.50;5024768;28;20041;-83
2022/01/09 09:04:58;;;;;;;15.05;1.98;;;;;;;3.16;89.67;99357.38;5024798;28;20504;-84
2022/01/09 09:07:25;;;;;;;18.15;2.58;;;;;;;3.16;90.07;99360.91;5027600;28;20075;-83
2022/01/09 09:09:52;;;;;;;15.18;2.30;;;;;;;3.17;89.99;99356.25;5026147;28;20034;-82
2022/01/09 09:12:20;;;;;;;15.60;4.05;;;;;;;3.19;89.92;99356.72;5026674;28;20042;-84
2022/01/09 09:14:48;;;;;;;10.10;3.40;;;;;;;3.19;90.09;99357.53;5026882;28;20040;-83
2022/01/09 09:17:15;;;;;;;12.90;2.38;;;;;;;3.21;90.13;99348.97;5009330;28;20485;-83
2022/01/09 09:19:42;;;;;;;10.93;2.63;;;;;;;3.24;90.49;99356.53;5024436;28;20045;-82
2022/01/09 09:22:09;;;;;;;10.80;2.90;;;;;;;3.28;90.92;99354.75;5027220;28;20587;-83
2022/01/09 09:24:36;;;;;;;17.67;2.67;;;;;;;3.30;90.41;99353.28;5027071;28;20560;-83
2022/01/09 09:27:03;;;;;;;14.23;4.40;;;;;;;3.32;90.35;99348.28;5027277;28;20069;-83
2022/01/09 09:29:30;;;;;;;11.35;2.20;;;;;;;3.34;90.26;99334.25;5027498;28;20116;-81
2022/01/09 09:31:56;;;;;;;13.80;2.25;;;;;;;3.35;90.71;99344.09;5026817;28;20561;-83
2022/01/09 09:34:23;;;;;;;15.18;2.40;;;;;;;3.36;90.43;99342.97;5027297;28;20043;-86
2022/01/09 09:36:51;;;;;;;15.63;2.60;;;;;;;3.38;90.46;99351.63;5024202;28;20057;-82
2022/01/09 09:39:18;;;;;;;16.40;2.95;;;;;;;3.41;90.14;99350.97;5007857;28;20421;-84
2022/01/09 09:41:46;;;;;;;19.25;2.97;;;;;;;3.43;90.60;99351.44;5015489;28;20037;-84
2022/01/09 09:44:13;;;;;;;17.85;3.45;;;;;;;3.46;90.36;99356.25;5023786;28;20046;-86
2022/01/09 09:46:40;;;;;;;14.57;3.78;;;;;;;3.52;90.27;99354.94;5026580;28;20052;-87
2022/01/09 09:49:07;;;;;;;14.25;3.00;;;;;;;3.54;90.56;99360.84;5025416;28;20135;-84
2022/01/09 09:51:33;;;;;;;22.33;3.70;;;;;;;3.56;90.34;99359.38;5027438;28;20041;-84
2022/01/09 09:54:00;;;;;;;21.92;4.07;;;;;;;3.59;90.47;99352.44;5026401;28;20029;-84
2022/01/09 09:56:27;;;;;;;13.82;2.55;;;;;;;3.62;90.49;99358.06;5026453;28;20045;-86
2022/01/09 09:58:58;;;;;;;10.82;3.35;;;;;;;3.65;90.14;99357.38;5009893;28;20045;-83
2022/01/09 10:01:30;;;;;;;11.20;2.80;;;;;;;3.67;89.97;99359.81;5025313;28;20055;-83
2022/01/09 10:03:59;;;;;;;17.45;3.35;;;;;;;3.70;90.36;99364.59;5025786;28;20038;-84
2022/01/09 10:06:33;;;;;;;12.30;2.92;;;;;;;3.73;90.05;99371.34;5024914;28;20072;-84
2022/01/09 10:09:05;;;;;;;12.95;2.78;;;;;;;3.76;90.25;99374.19;5026596;28;20061;-83
2022/01/09 10:11:50;;;;;;;19.20;3.03;;;;;;;3.79;90.25;99373.53;5026314;28;20612;-83
2022/01/09 10:14:24;;;;;;;17.40;2.88;;;;;;;3.84;90.35;99375.31;5008514;28;20129;-85
2022/01/09 10:17:16;;;;;;;15.30;3.55;;;;;;;3.90;90.02;99382.97;5017839;28;20151;-86
2022/01/09 10:19:58;;;;;;;11.52;2.92;;;;;;;3.94;90.00;99383.91;5008232;28;20049;-85
2022/01/09 10:22:36;;;;;;;9.98;3.08;;;;;;;3.97;89.74;99380.47;5005847;28;20524;-85
2022/01/09 10:25:21;;;;;;;16.08;2.75;;;;;;;3.98;90.05;99384.84;5022429;28;20041;-84
2022/01/09 10:27:50;;;;;;;18.17;4.07;;;;;;;4.01;89.82;99386.91;5021305;28;20048;-83
2022/01/09 10:30:22;;;;;;;14.95;3.22;;;;;;;4.01;89.75;99392.38;5023131;28;20083;-85
2022/01/09 10:32:55;;;;;;;10.43;3.07;;;;;;;4.02;89.99;99393.19;5026962;28;20046;-87
2022/01/09 10:35:25;;;;;;;16.65;2.85;;;;;;;4.03;89.82;99401.06;5023812;28;20037;-86
2022/01/09 10:38:22;;;;;;;11.13;2.80;;;;;;;4.02;89.90;99404.94;5024628;28;20037;-86
2022/01/09 10:41:03;;;;;;;12.45;2.70;;;;;;;4.01;90.12;99416.22;5007675;28;20080;-86
2022/01/09 10:43:35;;;;;;;9.95;2.70;;;;;;;4.00;89.78;99389.97;5023627;28;20041;-85
2022/01/09 10:46:03;;;;;;;9.43;2.58;;;;;;;3.99;89.79;99408.34;5025272;28;20049;-86
2022/01/09 10:48:37;;;;;;;11.82;2.80;;;;;;;3.98;89.69;99414.94;5026279;28;20057;-85
2022/01/09 10:51:07;;;;;;;11.32;2.95;;;;;;;4.01;89.98;99410.75;5022307;28;20041;-87
2022/01/09 10:53:36;;;;;;;10.80;3.50;;;;;;;4.02;89.68;99404.16;5003732;28;20867;-84
2022/01/09 10:56:20;;;;;;;8.90;2.10;;;;;;;4.03;89.75;99414.75;5020459;28;20049;-85
2022/01/09 10:58:53;;;;;;;17.95;4.15;;;;;;;4.05;89.78;99412.47;5004971;28;20053;-83
2022/01/09 11:01:27;;;;;;;12.63;3.05;;;;;;;4.07;89.68;99414.88;5023818;28;20053;-83
2022/01/09 11:03:58;;;;;;;14.73;3.20;;;;;;;4.11;89.87;99424.03;5022437;28;20174;-89
2022/01/09 11:06:31;;;;;;;10.13;1.83;;;;;;;4.18;89.85;99432.53;5022803;28;20099;-92
2022/01/09 11:09:00;;;;;;;22.92;3.53;;;;;;;4.21;89.58;99421.69;5026155;28;20049;-87
2022/01/09 11:11:31;;;;;;;14.32;6.03;;;;;;;4.24;89.51;99428.44;5025254;28;20050;-92
2022/01/09 11:14:03;;;;;;;15.10;3.55;;;;;;;4.26;89.69;99437.13;5008342;28;20081;-91
2022/01/09 11:16:33;;;;;;;12.38;3.42;;;;;;;4.26;89.81;99437.91;5025918;28;20056;-92
2022/01/09 11:19:06;;;;;;;9.02;3.35;;;;;;;4.30;89.60;99443.53;5025294;28;20081;-92
2022/01/09 11:21:43;;;;;;;15.55;3.58;;;;;;;4.36;89.57;99430.44;5025720;28;20048;-88
2022/01/09 11:24:31;;;;;;;17.67;4.70;;;;;;;4.41;89.25;99430.22;5025274;28;20060;-92
2022/01/09 11:27:06;;;;;;;13.32;3.25;;;;;;;4.47;89.22;99442.59;5026268;28;20086;-94
2022/01/09 11:29:51;;;;;;;14.73;2.85;;;;;;;4.51;89.13;99440.75;5024605;28;20076;-90
2022/01/09 11:32:39;;;;;;;12.93;3.85;;;;;;;4.57;89.06;99442.16;5008677;28;20041;-91
2022/01/09 11:35:06;;;;;;;12.75;3.70;;;;;;;4.64;89.38;99436.94;5026481;28;20241;-92
2022/01/09 11:37:50;;;;;;;16.27;4.13;;;;;;;4.69;89.15;99455.91;5024411;28;20055;-92
2022/01/09 11:40:22;;;;;;;12.68;3.55;;;;;;;4.71;88.86;99445.44;5001256;28;20041;-89
2022/01/09 11:43:01;;;;;;;19.27;5.47;;;;;;;4.76;88.78;99450.69;5024676;28;20052;-88
2022/01/09 11:45:41;;;;;;;14.77;3.30;;;;;;;4.82;88.52;99447.38;5007799;28;20056;-89
2022/01/09 11:48:09;;;;;;;13.35;3.15;;;;;;;4.87;88.52;99460.09;5023486;28;20060;-82